createdAt,value
2018-03-28T00:01:11.409Z,7.10
2018-03-28T00:03:37.649Z,7.24
2018-03-28T00:06:03.605Z,7.32
2018-03-28T00:08:29.564Z,7.32
2018-03-28T00:10:55.517Z,7.21
2018-03-28T00:13:21.478Z,7.24
2018-03-28T00:15:47.395Z,7.26
2018-03-28T00:18:13.363Z,7.21
2018-03-28T00:20:39.301Z,7.35
2018-03-28T00:23:05.251Z,7.17
2018-03-28T00:25:31.214Z,6.97
2018-03-28T00:27:57.137Z,7.36
2018-03-28T00:30:23.074Z,7.36
2018-03-28T00:32:49.053Z,7.44
2018-03-28T00:35:14.981Z,7.03
2018-03-28T00:37:41.204Z,7.36
2018-03-28T00:40:07.142Z,7.23
2018-03-28T00:42:33.090Z,7.13
2018-03-28T00:44:59.030Z,7.02
2018-03-28T00:47:25.294Z,7.34
2018-03-28T00:49:51.231Z,7.19
2018-03-28T00:52:17.171Z,7.18
2018-03-28T00:54:43.104Z,7.26
2018-03-28T00:57:09.036Z,7.16
2018-03-28T00:59:35.010Z,6.94
2018-03-28T01:02:00.967Z,7.19
2018-03-28T01:04:26.890Z,7.06
2018-03-28T01:06:52.845Z,6.90
2018-03-28T01:09:18.814Z,6.91
2018-03-28T01:11:44.738Z,7.18
2018-03-28T01:14:10.655Z,7.01
2018-03-28T01:16:36.629Z,7.20
2018-03-28T01:19:02.606Z,7.22
2018-03-28T01:21:31.703Z,7.49
2018-03-28T01:23:57.884Z,7.63
2018-03-28T01:26:23.822Z,7.48
2018-03-28T01:28:49.792Z,7.33
2018-03-28T01:31:16.075Z,6.90
2018-03-28T01:33:42.029Z,7.18
2018-03-28T01:36:07.959Z,7.24
2018-03-28T01:38:33.906Z,7.36
2018-03-28T01:40:59.850Z,7.19
2018-03-28T01:43:25.784Z,7.26
2018-03-28T01:45:51.698Z,7.25
2018-03-28T01:48:17.614Z,7.35
2018-03-28T01:50:43.530Z,7.34
2018-03-28T01:53:09.452Z,7.21
2018-03-28T01:55:35.448Z,6.97
2018-03-28T01:58:01.372Z,6.95
2018-03-28T02:00:27.325Z,7.09
2018-03-28T02:02:53.259Z,6.95
2018-03-28T02:05:19.174Z,7.07
2018-03-28T02:07:45.096Z,7.30
2018-03-28T02:10:11.014Z,7.09
2018-03-28T02:12:37.175Z,7.09
2018-03-28T02:15:03.125Z,7.16
2018-03-28T02:17:29.065Z,6.96
2018-03-28T02:19:55.016Z,7.08
2018-03-28T02:22:20.969Z,7.17
2018-03-28T02:24:47.063Z,7.13
2018-03-28T02:27:13.002Z,7.04
2018-03-28T02:29:38.930Z,6.84
2018-03-28T02:32:04.855Z,7.02
2018-03-28T02:34:30.801Z,6.90
2018-03-28T02:36:56.744Z,6.97
2018-03-28T02:39:22.701Z,6.99
2018-03-28T02:41:48.657Z,7.06
2018-03-28T02:44:14.599Z,7.19
2018-03-28T02:46:40.579Z,6.81
2018-03-28T02:49:06.610Z,7.10
2018-03-28T02:51:32.535Z,7.30
2018-03-28T02:53:58.507Z,7.07
2018-03-28T02:56:24.445Z,7.10
2018-03-28T02:58:50.367Z,6.95
2018-03-28T03:01:16.309Z,7.04
2018-03-28T03:03:42.262Z,6.90
2018-03-28T03:06:08.231Z,7.12
2018-03-28T03:08:34.170Z,7.06
2018-03-28T03:11:00.122Z,7.01
2018-03-28T03:13:26.054Z,7.08
2018-03-28T03:15:52.014Z,7.11
2018-03-28T03:18:17.993Z,6.84
2018-03-28T03:20:43.925Z,6.76
2018-03-28T03:23:09.886Z,6.62
2018-03-28T03:25:35.834Z,6.67
2018-03-28T03:28:01.847Z,6.80
2018-03-28T03:30:27.846Z,6.68
2018-03-28T03:32:53.785Z,6.67
2018-03-28T03:35:19.737Z,6.95
2018-03-28T03:37:45.705Z,6.88
2018-03-28T03:40:11.662Z,6.73
2018-03-28T03:42:37.617Z,6.69
2018-03-28T03:45:03.561Z,6.41
2018-03-28T03:47:29.501Z,6.42
2018-03-28T03:49:55.424Z,6.33
2018-03-28T03:52:21.355Z,6.76
2018-03-28T03:54:47.305Z,6.67
2018-03-28T03:57:13.257Z,6.74
2018-03-28T03:59:39.213Z,6.49
2018-03-28T04:02:05.161Z,6.88
2018-03-28T04:04:31.109Z,6.81
2018-03-28T04:06:57.064Z,6.69
2018-03-28T04:09:23.017Z,6.56
2018-03-28T04:11:48.961Z,6.54
2018-03-28T04:14:14.933Z,6.81
2018-03-28T04:16:40.855Z,6.92
2018-03-28T04:19:06.830Z,6.76
2018-03-28T04:21:32.825Z,6.57
2018-03-28T04:23:58.779Z,6.91
2018-03-28T04:26:24.765Z,6.52
2018-03-28T04:28:50.691Z,6.47
2018-03-28T04:31:16.641Z,6.29
2018-03-28T04:33:42.617Z,6.47
2018-03-28T04:36:08.593Z,6.32
2018-03-28T04:38:34.565Z,6.42
2018-03-28T04:41:00.501Z,6.62
2018-03-28T04:43:26.446Z,6.55
2018-03-28T04:45:52.397Z,6.29
2018-03-28T04:48:18.345Z,6.37
2018-03-28T04:50:44.326Z,6.34
2018-03-28T04:53:10.275Z,6.18
2018-03-28T04:55:36.223Z,6.24
2018-03-28T04:58:02.153Z,6.13
2018-03-28T05:00:28.102Z,5.96
2018-03-28T05:02:54.093Z,6.05
2018-03-28T05:05:20.048Z,6.22
2018-03-28T05:07:46.044Z,6.47
2018-03-28T05:10:11.970Z,6.10
2018-03-28T05:12:38.914Z,6.16
2018-03-28T05:15:04.835Z,6.09
2018-03-28T05:17:30.781Z,6.00
2018-03-28T05:19:56.724Z,6.33
2018-03-28T05:22:22.680Z,6.39
2018-03-28T05:24:48.717Z,6.30
2018-03-28T05:27:14.982Z,6.21
2018-03-28T05:29:41.035Z,6.26
2018-03-28T05:32:06.987Z,6.15
2018-03-28T05:34:32.921Z,6.06
2018-03-28T05:36:58.866Z,6.23
2018-03-28T05:39:24.828Z,6.51
2018-03-28T05:41:50.796Z,6.51
2018-03-28T05:44:16.727Z,6.27
2018-03-28T05:46:42.676Z,6.14
2018-03-28T05:49:08.600Z,6.21
2018-03-28T05:51:34.550Z,6.41
2018-03-28T05:54:00.526Z,6.59
2018-03-28T05:56:26.476Z,6.39
2018-03-28T05:58:52.457Z,6.45
2018-03-28T06:01:18.384Z,6.43
2018-03-28T06:03:44.346Z,6.05
2018-03-28T06:06:10.294Z,6.25
2018-03-28T06:08:36.270Z,6.49
2018-03-28T06:11:02.214Z,6.35
2018-03-28T06:13:28.150Z,6.50
2018-03-28T06:15:54.076Z,6.33
2018-03-28T06:18:20.026Z,6.25
2018-03-28T06:20:45.964Z,6.48
2018-03-28T06:23:11.931Z,6.55
2018-03-28T06:25:37.914Z,6.49
2018-03-28T06:28:03.868Z,6.54
2018-03-28T06:30:29.890Z,6.36
2018-03-28T06:32:55.822Z,6.54
2018-03-28T06:35:21.807Z,6.48
2018-03-28T06:37:47.782Z,6.65
2018-03-28T06:40:13.708Z,6.44
2018-03-28T06:42:39.662Z,6.51
2018-03-28T06:45:05.584Z,6.53
2018-03-28T06:47:31.548Z,6.69
2018-03-28T06:49:57.470Z,6.74
2018-03-28T06:52:23.437Z,6.71
2018-03-28T06:54:49.380Z,6.65
2018-03-28T06:57:15.320Z,6.83
2018-03-28T06:59:41.301Z,6.71
2018-03-28T07:02:07.216Z,6.67
2018-03-28T07:04:33.192Z,6.78
2018-03-28T07:06:59.187Z,6.57
2018-03-28T07:09:25.156Z,6.54
2018-03-28T07:11:51.104Z,6.51
2018-03-28T07:14:17.073Z,6.70
2018-03-28T07:16:42.999Z,6.68
2018-03-28T07:19:08.942Z,6.83
2018-03-28T07:21:34.878Z,6.96
2018-03-28T07:24:00.822Z,7.01
2018-03-28T07:26:26.792Z,7.02
2018-03-28T07:28:52.719Z,7.00
2018-03-28T07:31:18.685Z,7.01
2018-03-28T07:33:44.677Z,6.88
2018-03-28T07:36:10.688Z,6.66
2018-03-28T07:38:36.637Z,6.96
2018-03-28T07:41:02.814Z,6.99
2018-03-28T07:43:28.839Z,7.05
2018-03-28T07:45:54.783Z,7.12
2018-03-28T07:48:20.730Z,6.92
2018-03-28T07:50:46.725Z,7.10
2018-03-28T07:53:12.727Z,7.22
2018-03-28T07:55:38.679Z,7.30
2018-03-28T07:58:04.674Z,7.54
2018-03-28T08:00:30.595Z,7.49
2018-03-28T08:02:56.585Z,7.40
2018-03-28T08:05:22.535Z,7.21
2018-03-28T08:07:48.485Z,7.36
2018-03-28T08:10:14.439Z,7.63
2018-03-28T08:12:40.358Z,7.65
2018-03-28T08:15:06.336Z,7.86
2018-03-28T08:17:32.259Z,7.58
2018-03-28T08:19:58.247Z,7.57
2018-03-28T08:22:24.171Z,7.72
2018-03-28T08:24:50.153Z,7.58
2018-03-28T08:27:16.110Z,7.42
2018-03-28T08:29:42.035Z,7.64
2018-03-28T08:32:07.990Z,7.71
2018-03-28T08:34:33.954Z,7.82
2018-03-28T08:36:59.899Z,7.90
2018-03-28T08:39:25.817Z,7.83
2018-03-28T08:41:51.775Z,8.04
2018-03-28T08:44:17.722Z,8.01
2018-03-28T08:46:43.697Z,8.00
2018-03-28T08:49:09.644Z,7.92
2018-03-28T08:51:35.569Z,7.95
2018-03-28T08:54:01.519Z,8.25
2018-03-28T08:56:27.750Z,8.27
2018-03-28T08:58:53.690Z,7.99
2018-03-28T09:01:19.634Z,7.96
2018-03-28T09:03:45.581Z,7.99
2018-03-28T09:06:11.521Z,8.11
2018-03-28T09:08:37.441Z,8.27
2018-03-28T09:11:03.450Z,8.45
2018-03-28T09:13:29.439Z,8.63
2018-03-28T09:15:55.381Z,8.49
2018-03-28T09:18:21.458Z,8.65
2018-03-28T09:20:47.490Z,8.81
2018-03-28T09:23:13.452Z,8.50
2018-03-28T09:25:39.786Z,8.50
2018-03-28T09:28:05.735Z,8.64
2018-03-28T09:30:31.706Z,8.92
2018-03-28T09:32:57.648Z,8.73
2018-03-28T09:35:23.640Z,8.91
2018-03-28T09:37:49.584Z,8.94
2018-03-28T09:40:15.532Z,8.98
2018-03-28T09:42:41.516Z,9.12
2018-03-28T09:45:07.434Z,9.24
2018-03-28T09:47:33.418Z,9.36
2018-03-28T09:49:59.360Z,9.42
2018-03-28T09:52:25.284Z,9.45
2018-03-28T09:54:51.238Z,9.47
2018-03-28T09:57:17.190Z,9.55
2018-03-28T09:59:43.126Z,9.51
2018-03-28T10:02:09.083Z,9.71
2018-03-28T10:04:35.026Z,9.85
2018-03-28T10:07:00.963Z,9.73
2018-03-28T10:09:26.918Z,9.76
2018-03-28T10:11:52.859Z,9.82
2018-03-28T10:14:18.782Z,9.66
2018-03-28T10:16:44.729Z,9.72
2018-03-28T10:19:10.974Z,9.66
2018-03-28T10:21:37.000Z,9.56
2018-03-28T10:24:02.927Z,9.80
2018-03-28T10:26:28.852Z,9.93
2018-03-28T10:28:54.766Z,9.99
2018-03-28T10:31:20.733Z,9.94
2018-03-28T10:33:46.676Z,9.94
2018-03-28T10:36:12.989Z,10.04
2018-03-28T10:38:38.930Z,10.09
2018-03-28T10:41:04.870Z,10.04
2018-03-28T10:43:30.821Z,10.01
2018-03-28T10:45:56.776Z,10.14
2018-03-28T10:48:22.742Z,10.19
2018-03-28T10:50:48.688Z,10.23
2018-03-28T10:53:14.655Z,10.15
2018-03-28T10:55:40.579Z,10.12
2018-03-28T10:58:06.651Z,10.11
2018-03-28T11:00:32.591Z,10.20
2018-03-28T11:02:58.521Z,10.26
2018-03-28T11:05:24.439Z,10.07
2018-03-28T11:07:50.401Z,10.20
2018-03-28T11:10:16.309Z,10.11
2018-03-28T11:12:42.254Z,10.22
2018-03-28T11:15:08.214Z,10.29
2018-03-28T11:17:34.256Z,10.22
2018-03-28T11:20:00.183Z,10.34
2018-03-28T11:22:26.136Z,10.42
2018-03-28T11:24:52.098Z,10.45
2018-03-28T11:27:18.063Z,10.32
2018-03-28T11:29:44.011Z,10.58
2018-03-28T11:32:10.181Z,10.74
2018-03-28T11:34:36.101Z,10.78
2018-03-28T11:37:02.045Z,10.75
2018-03-28T11:39:28.019Z,10.77
2018-03-28T11:41:53.987Z,10.87
2018-03-28T11:44:19.992Z,10.93
2018-03-28T11:46:45.927Z,11.01
2018-03-28T11:49:11.877Z,11.06
2018-03-28T11:51:37.821Z,11.04
2018-03-28T11:54:03.776Z,11.00
2018-03-28T11:56:29.737Z,10.94
2018-03-28T11:58:55.663Z,10.99
2018-03-28T12:01:21.744Z,11.09
2018-03-28T12:03:47.677Z,11.15
2018-03-28T12:06:13.625Z,11.13
2018-03-28T12:08:39.544Z,11.14
2018-03-28T12:11:05.491Z,11.08
2018-03-28T12:16:04.179Z,11.16
2018-03-28T12:18:30.093Z,11.13
2018-03-28T12:20:56.021Z,11.04
2018-03-28T12:23:21.962Z,11.11
2018-03-28T12:25:47.888Z,11.11
2018-03-28T12:28:13.836Z,11.08
2018-03-28T12:30:39.784Z,11.10
2018-03-28T12:33:05.762Z,11.16
2018-03-28T12:35:31.688Z,11.13
2018-03-28T12:37:57.618Z,11.02
2018-03-28T12:40:23.570Z,11.13
2018-03-28T12:42:49.515Z,11.22
2018-03-28T12:45:15.448Z,11.21
2018-03-28T12:47:41.386Z,11.15
2018-03-28T12:50:07.316Z,11.14
2018-03-28T12:52:33.280Z,11.23
2018-03-28T12:54:59.198Z,11.00
2018-03-28T12:57:25.148Z,11.16
2018-03-28T12:59:51.144Z,11.18
2018-03-28T13:02:17.074Z,11.13
2018-03-28T13:04:43.029Z,11.29
2018-03-28T13:07:08.956Z,11.31
2018-03-28T13:09:34.886Z,11.33
2018-03-28T13:12:00.844Z,11.35
2018-03-28T13:14:26.810Z,11.33
2018-03-28T13:16:52.756Z,11.36
2018-03-28T13:19:18.709Z,11.23
2018-03-28T13:21:44.646Z,11.33
2018-03-28T13:24:10.599Z,11.15
2018-03-28T13:26:36.536Z,11.30
2018-03-28T13:29:02.460Z,11.39
2018-03-28T13:31:28.404Z,11.30
2018-03-28T13:33:54.344Z,11.33
2018-03-28T13:36:20.290Z,11.25
2018-03-28T13:38:46.267Z,11.28
2018-03-28T13:41:12.203Z,11.20
2018-03-28T13:43:38.154Z,11.31
2018-03-28T13:46:04.112Z,11.27
2018-03-28T13:48:30.073Z,11.16
2018-03-28T13:50:56.033Z,11.35
2018-03-28T13:53:22.001Z,11.20
2018-03-28T13:55:47.957Z,11.27
2018-03-28T13:58:13.941Z,11.25
2018-03-28T14:00:39.880Z,11.32
2018-03-28T14:03:05.827Z,11.26
2018-03-28T14:05:31.817Z,11.17
2018-03-28T14:07:57.775Z,10.96
2018-03-28T14:10:23.726Z,10.71
2018-03-28T14:12:49.685Z,10.55
2018-03-28T14:15:15.639Z,10.31
2018-03-28T14:17:41.601Z,10.26
2018-03-28T14:20:07.532Z,10.27
2018-03-28T14:22:33.482Z,10.11
2018-03-28T14:24:59.443Z,10.48
2018-03-28T14:27:25.407Z,10.49
2018-03-28T14:29:51.394Z,10.35
2018-03-28T14:32:17.349Z,9.99
2018-03-28T14:34:43.329Z,10.10
2018-03-28T14:37:09.269Z,9.99
2018-03-28T14:39:35.280Z,10.07
2018-03-28T14:42:01.243Z,9.96
2018-03-28T14:44:27.221Z,10.01
2018-03-28T14:46:53.229Z,9.95
2018-03-28T14:49:19.183Z,10.10
2018-03-28T14:51:45.115Z,10.03
2018-03-28T14:54:11.079Z,9.79
2018-03-28T14:56:37.037Z,9.68
2018-03-28T14:59:02.979Z,9.94
2018-03-28T15:01:28.971Z,10.01
2018-03-28T15:03:54.899Z,9.86
2018-03-28T15:06:20.860Z,10.01
2018-03-28T15:08:46.819Z,9.77
2018-03-28T15:11:12.783Z,9.79
2018-03-28T15:13:38.745Z,9.82
2018-03-28T15:16:04.679Z,9.83
2018-03-28T15:18:30.683Z,9.92
2018-03-28T15:20:56.637Z,9.78
2018-03-28T15:23:22.615Z,9.51
2018-03-28T15:25:48.551Z,9.71
2018-03-28T15:28:14.525Z,9.63
2018-03-28T15:30:40.456Z,9.79
2018-03-28T15:33:06.427Z,9.78
2018-03-28T15:35:32.381Z,9.80
2018-03-28T15:37:58.338Z,9.81
2018-03-28T15:40:24.336Z,9.89
2018-03-28T15:42:50.280Z,9.76
2018-03-28T15:45:16.273Z,9.52
2018-03-28T15:47:42.228Z,9.86
2018-03-28T15:50:08.192Z,9.94
2018-03-28T15:52:34.127Z,9.83
2018-03-28T15:55:00.201Z,9.93
2018-03-28T15:57:26.156Z,10.01
2018-03-28T15:59:52.130Z,9.84
2018-03-28T16:02:18.090Z,9.75
2018-03-28T16:04:44.032Z,9.87
2018-03-28T16:07:09.990Z,9.68
2018-03-28T16:09:35.968Z,9.68
2018-03-28T16:12:01.915Z,9.64
2018-03-28T16:14:27.874Z,9.95
2018-03-28T16:16:53.838Z,9.86
2018-03-28T16:19:19.828Z,9.74
2018-03-28T16:21:46.836Z,9.78
2018-03-28T16:24:12.803Z,9.55
2018-03-28T16:26:38.780Z,9.52
2018-03-28T16:29:04.770Z,9.57
2018-03-28T16:31:30.750Z,9.51
2018-03-28T16:33:56.706Z,9.44
2018-03-28T16:36:22.630Z,9.46
2018-03-28T16:38:48.588Z,9.46
2018-03-28T16:41:14.825Z,9.29
2018-03-28T16:43:40.785Z,9.42
2018-03-28T16:46:06.734Z,9.00
2018-03-28T16:48:32.678Z,9.30
2018-03-28T16:50:58.694Z,9.24
2018-03-28T16:53:24.618Z,9.31
2018-03-28T16:55:50.610Z,9.34
2018-03-28T16:58:16.547Z,9.52
2018-03-28T17:00:42.559Z,9.49
2018-03-28T17:03:08.597Z,9.38
2018-03-28T17:05:34.660Z,9.39
2018-03-28T17:08:00.618Z,9.36
2018-03-28T17:10:26.602Z,9.50
2018-03-28T17:12:52.534Z,9.35
2018-03-28T17:15:18.646Z,9.60
2018-03-28T17:17:44.634Z,9.68
2018-03-28T17:20:10.580Z,9.71
2018-03-28T17:22:36.528Z,9.70
2018-03-28T17:25:02.507Z,9.62
2018-03-28T17:27:28.470Z,9.43
2018-03-28T17:29:54.549Z,9.26
2018-03-28T17:32:20.503Z,9.30
2018-03-28T17:34:46.434Z,9.04
2018-03-28T17:37:12.378Z,9.06
2018-03-28T17:39:38.313Z,9.24
2018-03-28T17:42:04.299Z,9.24
2018-03-28T17:44:30.321Z,9.28
2018-03-28T17:46:56.251Z,9.08
2018-03-28T17:49:22.261Z,8.77
2018-03-28T17:51:48.214Z,9.14
2018-03-28T17:54:14.197Z,9.24
2018-03-28T17:56:40.153Z,9.01
2018-03-28T17:59:06.104Z,9.20
2018-03-28T18:01:32.056Z,9.06
2018-03-28T18:03:58.005Z,9.24
2018-03-28T18:06:24.137Z,9.21
2018-03-28T18:08:50.103Z,9.46
2018-03-28T18:11:16.065Z,9.43
2018-03-28T18:13:42.015Z,9.40
2018-03-28T18:16:08.054Z,9.38
2018-03-28T18:18:34.002Z,9.19
2018-03-28T18:21:00.024Z,9.24
2018-03-28T18:23:25.991Z,9.17
2018-03-28T18:25:51.945Z,9.45
2018-03-28T18:28:17.878Z,9.22
2018-03-28T18:30:43.813Z,9.20
2018-03-28T18:33:09.792Z,9.32
2018-03-28T18:35:35.747Z,9.30
2018-03-28T18:38:01.691Z,9.03
2018-03-28T18:40:27.796Z,8.95
2018-03-28T18:42:53.708Z,8.97
2018-03-28T18:45:19.695Z,9.07
2018-03-28T18:47:45.671Z,9.06
2018-03-28T18:50:11.621Z,9.02
2018-03-28T18:52:37.574Z,9.05
2018-03-28T18:55:03.903Z,9.07
2018-03-28T18:57:29.866Z,9.09
2018-03-28T18:59:55.816Z,9.04
2018-03-28T19:02:21.739Z,9.00
2018-03-28T19:04:47.696Z,9.23
2018-03-28T19:07:13.721Z,9.16
2018-03-28T19:09:40.765Z,9.16
2018-03-28T19:12:06.694Z,9.13
2018-03-28T19:14:32.641Z,8.94
2018-03-28T19:16:58.640Z,9.09
2018-03-28T19:19:24.636Z,9.13
2018-03-28T19:21:50.607Z,9.02
2018-03-28T19:24:16.634Z,8.98
2018-03-28T19:26:42.601Z,9.11
2018-03-28T19:29:08.586Z,9.07
2018-03-28T19:31:34.606Z,9.00
2018-03-28T19:34:00.578Z,9.04
2018-03-28T19:36:26.700Z,8.92
2018-03-28T19:38:52.660Z,8.91
2018-03-28T19:41:18.598Z,8.92
2018-03-28T19:43:44.522Z,8.77
2018-03-28T19:46:10.485Z,8.86
2018-03-28T19:48:36.518Z,8.89
2018-03-28T19:51:02.470Z,8.99
2018-03-28T19:53:28.418Z,8.78
2018-03-28T19:55:54.380Z,8.91
2018-03-28T19:58:20.332Z,8.85
2018-03-28T20:00:46.274Z,8.93
2018-03-28T20:03:12.255Z,8.92
2018-03-28T20:05:38.182Z,8.87
2018-03-28T20:08:04.133Z,8.92
2018-03-28T20:10:30.099Z,8.83
2018-03-28T20:12:56.066Z,8.88
2018-03-28T20:15:22.006Z,8.83
2018-03-28T20:17:47.976Z,8.82
2018-03-28T20:20:13.918Z,8.90
2018-03-28T20:22:39.948Z,8.97
2018-03-28T20:25:05.895Z,8.96
2018-03-28T20:27:32.907Z,8.92
2018-03-28T20:29:58.887Z,9.00
2018-03-28T20:32:24.839Z,9.01
2018-03-28T20:34:50.779Z,8.91
2018-03-28T20:37:16.725Z,8.96
2018-03-28T20:39:42.681Z,8.82
2018-03-28T20:42:08.618Z,8.89
2018-03-28T20:44:34.600Z,8.97
2018-03-28T20:47:00.527Z,9.02
2018-03-28T20:49:27.547Z,8.98
2018-03-28T20:51:53.475Z,9.06
2018-03-28T20:54:19.789Z,8.94
2018-03-28T20:56:45.759Z,9.06
2018-03-28T20:59:11.689Z,9.10
2018-03-28T21:01:37.649Z,9.03
2018-03-28T21:04:03.599Z,9.14
2018-03-28T21:06:29.527Z,9.02
2018-03-28T21:08:55.480Z,9.13
2018-03-28T21:11:21.587Z,9.12
2018-03-28T21:13:47.507Z,8.92
2018-03-28T21:16:13.430Z,9.00
2018-03-28T21:18:39.370Z,8.96
2018-03-28T21:21:05.339Z,8.79
2018-03-28T21:23:31.292Z,9.12
2018-03-28T21:25:57.245Z,9.00
2018-03-28T21:28:23.189Z,8.99
2018-03-28T21:30:49.211Z,9.16
2018-03-28T21:33:15.157Z,9.07
2018-03-28T21:35:41.106Z,9.01
2018-03-28T21:38:07.065Z,9.07
2018-03-28T21:40:32.995Z,9.04
2018-03-28T21:42:58.942Z,9.08
2018-03-28T21:45:24.898Z,9.34
2018-03-28T21:47:50.851Z,9.17
2018-03-28T21:50:16.834Z,9.32
2018-03-28T21:52:42.763Z,9.33
2018-03-28T21:55:08.712Z,9.39
2018-03-28T21:57:34.657Z,9.27
2018-03-28T22:00:00.901Z,9.27
2018-03-28T22:02:26.847Z,8.84
2018-03-28T22:04:52.798Z,9.13
2018-03-28T22:07:18.797Z,9.22
2018-03-28T22:09:44.752Z,8.90
2018-03-28T22:12:10.738Z,8.88
2018-03-28T22:14:36.711Z,8.68
2018-03-28T22:17:02.654Z,8.97
2018-03-28T22:19:28.894Z,8.99
2018-03-28T22:21:54.813Z,9.13
2018-03-28T22:24:20.758Z,9.11
2018-03-28T22:26:46.714Z,9.15
2018-03-28T22:29:12.640Z,9.19
2018-03-28T22:31:38.606Z,9.12
2018-03-28T22:34:04.534Z,9.17
2018-03-28T22:36:30.504Z,9.18
2018-03-28T22:38:56.454Z,9.24
2018-03-28T22:41:22.401Z,9.21
2018-03-28T22:43:48.324Z,9.05
2018-03-28T22:46:14.286Z,9.06
2018-03-28T22:48:40.242Z,9.13
2018-03-28T22:51:06.218Z,9.19
2018-03-28T22:53:32.166Z,9.22
2018-03-28T22:55:58.124Z,9.23
2018-03-28T22:58:24.074Z,9.28
2018-03-28T23:00:50.048Z,9.10
2018-03-28T23:03:15.994Z,9.24
2018-03-28T23:05:41.933Z,9.35
2018-03-28T23:08:07.866Z,9.14
2018-03-28T23:10:33.817Z,9.20
2018-03-28T23:12:59.768Z,9.06
2018-03-28T23:15:25.706Z,9.01
2018-03-28T23:17:51.662Z,8.98
2018-03-28T23:20:17.610Z,9.08
2018-03-28T23:22:43.562Z,9.10
2018-03-28T23:25:09.488Z,9.18
2018-03-28T23:27:35.454Z,9.26
2018-03-28T23:30:01.366Z,9.35
2018-03-28T23:32:27.338Z,9.25
2018-03-28T23:34:53.289Z,9.24
2018-03-28T23:37:19.235Z,9.22
2018-03-28T23:39:45.182Z,9.19
2018-03-28T23:42:11.112Z,9.17
2018-03-28T23:44:37.055Z,9.30
2018-03-28T23:47:02.987Z,9.45
2018-03-28T23:49:28.953Z,9.18
2018-03-28T23:51:54.866Z,9.08
2018-03-28T23:54:20.825Z,9.26
2018-03-28T23:56:46.768Z,9.42
2018-03-28T23:59:12.732Z,9.18
